createdAt,value
2023-02-03T00:02:13.546Z,87953.41
2023-02-03T00:04:40.852Z,87953.06
2023-02-03T00:07:13.069Z,87945.09
2023-02-03T00:09:41.026Z,87949.56
2023-02-03T00:12:09.353Z,87942.06
2023-02-03T00:14:36.643Z,87942.69
2023-02-03T00:17:04.651Z,87943.31
2023-02-03T00:19:32.317Z,87948.19
2023-02-03T00:21:59.619Z,87936.13
2023-02-03T00:24:26.978Z,87941.78
2023-02-03T00:26:54.261Z,87937.34
2023-02-03T00:29:21.472Z,87938.09
2023-02-03T00:31:48.884Z,87938.72
2023-02-03T00:34:16.134Z,87928.66
2023-02-03T00:36:43.301Z,87932.63
2023-02-03T00:39:10.482Z,87923.75
2023-02-03T00:41:37.976Z,87924.50
2023-02-03T00:44:05.421Z,87920.09
2023-02-03T00:46:32.774Z,87927.09
2023-02-03T00:48:59.915Z,87925.13
2023-02-03T00:51:27.151Z,87921.91
2023-02-03T00:53:54.379Z,87923.59
2023-02-03T00:56:21.503Z,87918.53
2023-02-03T00:58:48.675Z,87915.81
2023-02-03T01:01:16.192Z,87919.34
2023-02-03T01:03:43.498Z,87929.75
2023-02-03T01:06:10.981Z,87921.63
2023-02-03T01:08:38.846Z,87913.69
2023-02-03T01:11:12.500Z,87903.56
2023-02-03T01:13:40.206Z,87917.81
2023-02-03T01:16:14.292Z,87912.47
2023-02-03T01:18:42.915Z,87913.41
2023-02-03T01:21:17.684Z,87911.69
2023-02-03T01:23:45.547Z,87901.00
2023-02-03T01:26:16.722Z,87908.19
2023-02-03T01:28:44.715Z,87907.13
2023-02-03T01:31:19.052Z,87902.09
2023-02-03T01:33:47.430Z,87900.41
2023-02-03T01:36:18.331Z,87892.13
2023-02-03T01:38:46.731Z,87888.78
2023-02-03T01:41:22.294Z,87893.81
2023-02-03T01:43:56.435Z,87884.34
2023-02-03T01:46:44.746Z,87885.72
2023-02-03T01:49:25.060Z,87879.00
2023-02-03T01:51:53.928Z,87869.53
2023-02-03T01:54:31.692Z,87875.00
2023-02-03T01:57:19.586Z,87880.19
2023-02-03T01:59:49.890Z,87881.56
2023-02-03T02:02:17.209Z,87874.09
2023-02-03T02:05:07.090Z,87865.09
2023-02-03T02:07:37.740Z,87857.88
2023-02-03T02:10:06.528Z,87853.78
2023-02-03T02:12:33.813Z,87858.19
2023-02-03T02:15:01.601Z,87845.06
2023-02-03T02:17:58.796Z,87849.94
2023-02-03T02:20:53.075Z,87844.59
2023-02-03T02:23:58.336Z,87850.38
2023-02-03T02:26:44.275Z,87863.34
2023-02-03T02:30:03.885Z,87865.31
2023-02-03T02:32:48.255Z,87859.81
2023-02-03T02:35:43.752Z,87863.63
2023-02-03T02:38:34.996Z,87869.72
2023-02-03T02:41:36.774Z,87871.84
2023-02-03T02:44:41.928Z,87861.19
2023-02-03T02:47:22.400Z,87853.84
2023-02-03T02:50:09.243Z,87863.63
2023-02-03T02:52:44.532Z,87854.63
2023-02-03T02:55:39.894Z,87856.13
2023-02-03T02:58:16.533Z,87854.78
2023-02-03T03:00:45.584Z,87866.69
2023-02-03T03:03:24.728Z,87855.06
2023-02-03T03:06:04.980Z,87857.16
2023-02-03T03:08:59.157Z,87855.97
2023-02-03T03:11:33.679Z,87855.47
2023-02-03T03:14:03.804Z,87857.78
2023-02-03T03:16:37.175Z,87851.97
2023-02-03T03:19:24.464Z,87861.69
2023-02-03T03:22:00.241Z,87846.59
2023-02-03T03:24:40.620Z,87849.94
2023-02-03T03:27:20.239Z,87854.84
2023-02-03T03:29:58.663Z,87838.53
2023-02-03T03:32:26.460Z,87852.38
2023-02-03T03:34:54.789Z,87847.50
2023-02-03T03:37:28.836Z,87850.03
2023-02-03T03:40:07.653Z,87854.75
2023-02-03T03:42:38.836Z,87861.03
2023-02-03T03:45:42.518Z,87860.06
2023-02-03T03:48:15.593Z,87859.00
2023-02-03T03:51:00.704Z,87859.63
2023-02-03T03:53:33.806Z,87839.50
2023-02-03T03:56:06.905Z,87843.13
2023-02-03T03:58:36.780Z,87846.28
2023-02-03T04:01:07.472Z,87842.78
2023-02-03T04:03:56.220Z,87857.06
2023-02-03T04:06:24.371Z,87866.50
2023-02-03T04:08:51.595Z,87866.31
2023-02-03T04:11:18.809Z,87868.63
2023-02-03T04:13:45.992Z,87858.50
2023-02-03T04:16:13.262Z,87850.28
2023-02-03T04:18:40.475Z,87855.34
2023-02-03T04:21:07.972Z,87850.03
2023-02-03T04:23:35.110Z,87831.91
2023-02-03T04:26:04.768Z,87841.50
2023-02-03T04:28:32.021Z,87845.44
2023-02-03T04:31:01.655Z,87848.91
2023-02-03T04:33:28.909Z,87862.41
2023-02-03T04:35:56.133Z,87849.47
2023-02-03T04:38:23.335Z,87864.69
2023-02-03T04:40:50.625Z,87854.13
2023-02-03T04:43:17.781Z,87845.47
2023-02-03T04:45:44.999Z,87858.28
2023-02-03T04:48:12.250Z,87863.47
2023-02-03T04:50:39.444Z,87850.25
2023-02-03T04:53:06.705Z,87841.94
2023-02-03T04:55:34.116Z,87842.81
2023-02-03T04:58:02.216Z,87844.06
2023-02-03T05:00:30.340Z,87857.41
2023-02-03T05:02:57.621Z,87849.53
2023-02-03T05:05:24.913Z,87863.63
2023-02-03T05:07:52.213Z,87858.47
2023-02-03T05:10:19.878Z,87877.19
2023-02-03T05:12:47.218Z,87869.63
2023-02-03T05:15:14.752Z,87873.69
2023-02-03T05:17:41.887Z,87873.97
2023-02-03T05:20:10.099Z,87882.81
2023-02-03T05:22:37.313Z,87881.25
2023-02-03T05:25:05.598Z,87875.53
2023-02-03T05:27:32.805Z,87872.25
2023-02-03T05:29:59.994Z,87880.22
2023-02-03T05:32:27.227Z,87894.03
2023-02-03T05:34:54.415Z,87890.56
2023-02-03T05:37:21.672Z,87894.84
2023-02-03T05:39:48.776Z,87902.63
2023-02-03T05:42:15.904Z,87910.09
2023-02-03T05:44:43.161Z,87908.44
2023-02-03T05:47:10.521Z,87898.47
2023-02-03T05:49:38.051Z,87893.59
2023-02-03T05:52:05.302Z,87902.28
2023-02-03T05:54:32.493Z,87907.00
2023-02-03T05:56:59.975Z,87915.44
2023-02-03T05:59:27.239Z,87918.78
2023-02-03T06:01:54.484Z,87912.75
2023-02-03T06:04:21.673Z,87922.16
2023-02-03T06:06:48.858Z,87919.38
2023-02-03T06:09:16.207Z,87928.59
2023-02-03T06:11:43.442Z,87929.94
2023-02-03T06:14:10.721Z,87944.22
2023-02-03T06:16:37.915Z,87939.03
2023-02-03T06:19:05.144Z,87951.41
2023-02-03T06:21:32.312Z,87954.75
2023-02-03T06:23:59.502Z,87952.94
2023-02-03T06:26:26.981Z,87949.47
2023-02-03T06:28:54.206Z,87945.38
2023-02-03T06:31:21.487Z,87945.94
2023-02-03T06:33:48.773Z,87943.75
2023-02-03T06:36:16.069Z,87940.50
2023-02-03T06:38:43.362Z,87937.53
2023-02-03T06:41:10.493Z,87940.09
2023-02-03T06:43:37.625Z,87955.63
2023-02-03T06:46:04.994Z,87963.69
2023-02-03T06:48:32.254Z,87969.78
2023-02-03T06:50:59.451Z,87969.72
2023-02-03T06:53:26.670Z,87968.19
2023-02-03T06:55:53.851Z,87964.53
2023-02-03T06:58:21.095Z,87966.16
2023-02-03T07:00:48.278Z,87952.94
2023-02-03T07:03:15.509Z,87947.97
2023-02-03T07:05:42.671Z,87943.38
2023-02-03T07:08:09.852Z,87934.84
2023-02-03T07:10:36.970Z,87940.97
2023-02-03T07:13:08.231Z,87941.19
2023-02-03T07:15:36.074Z,87936.66
2023-02-03T07:18:03.383Z,87938.41
2023-02-03T07:20:30.863Z,87934.97
2023-02-03T07:22:58.752Z,87931.78
2023-02-03T07:25:26.898Z,87935.22
2023-02-03T07:27:54.681Z,87927.66
2023-02-03T07:30:22.647Z,87925.47
2023-02-03T07:32:52.443Z,87931.97
2023-02-03T07:35:20.788Z,87940.84
2023-02-03T07:37:48.167Z,87937.38
2023-02-03T07:40:16.282Z,87947.81
2023-02-03T07:42:49.020Z,87943.28
2023-02-03T07:45:18.517Z,87940.72
2023-02-03T07:47:46.127Z,87951.84
2023-02-03T07:50:13.785Z,87943.03
2023-02-03T07:52:41.673Z,87951.47
2023-02-03T07:55:09.863Z,87937.81
2023-02-03T07:57:37.105Z,87930.78
2023-02-03T08:00:05.887Z,87938.81
2023-02-03T08:02:33.326Z,87938.56
2023-02-03T08:05:00.562Z,87925.41
2023-02-03T08:07:27.736Z,87914.19
2023-02-03T08:09:56.953Z,87921.75
2023-02-03T08:12:24.168Z,87917.84
2023-02-03T08:14:51.737Z,87924.00
2023-02-03T08:17:19.169Z,87898.88
2023-02-03T08:19:46.481Z,87906.56
2023-02-03T08:22:13.742Z,87909.03
2023-02-03T08:24:40.902Z,87898.41
2023-02-03T08:27:08.123Z,87896.91
2023-02-03T08:29:35.351Z,87894.66
2023-02-03T08:32:04.773Z,87899.09
2023-02-03T08:34:32.508Z,87891.94
2023-02-03T08:37:00.007Z,87892.25
2023-02-03T08:39:27.400Z,87904.63
2023-02-03T08:41:54.905Z,87902.97
2023-02-03T08:44:22.511Z,87901.59
2023-02-03T08:46:52.412Z,87915.06
2023-02-03T08:49:20.899Z,87922.09
2023-02-03T08:51:49.140Z,87925.16
2023-02-03T08:54:16.498Z,87927.28
2023-02-03T08:56:43.988Z,87933.88
2023-02-03T08:59:12.420Z,87932.34
2023-02-03T09:01:39.896Z,87944.88
2023-02-03T09:04:08.114Z,87932.47
2023-02-03T09:06:36.631Z,87930.38
2023-02-03T09:09:05.238Z,87926.53
2023-02-03T09:11:32.644Z,87928.66
2023-02-03T09:13:59.956Z,87928.03
2023-02-03T09:16:27.320Z,87936.91
2023-02-03T09:18:54.582Z,87933.22
2023-02-03T09:21:33.013Z,87927.69
2023-02-03T09:24:08.287Z,87916.50
2023-02-03T09:26:36.885Z,87909.75
2023-02-03T09:29:04.187Z,87922.75
2023-02-03T09:31:31.449Z,87911.72
2023-02-03T09:34:00.270Z,87909.13
2023-02-03T09:36:27.622Z,87914.13
2023-02-03T09:38:54.950Z,87911.19
2023-02-03T09:41:46.969Z,87909.31
2023-02-03T09:44:45.963Z,87906.97
2023-02-03T09:47:28.871Z,87897.59
2023-02-03T09:50:05.992Z,87906.13
2023-02-03T09:52:38.528Z,87894.16
2023-02-03T09:55:28.772Z,87888.44
2023-02-03T09:58:11.464Z,87889.16
2023-02-03T10:00:59.377Z,87876.25
2023-02-03T10:03:57.142Z,87875.88
2023-02-03T10:06:47.231Z,87871.38
2023-02-03T10:09:50.333Z,87865.31
2023-02-03T10:12:53.616Z,87862.16
2023-02-03T10:15:42.528Z,87854.38
2023-02-03T10:18:46.126Z,87856.72
2023-02-03T10:21:43.283Z,87855.28
2023-02-03T10:24:21.923Z,87849.63
2023-02-03T10:26:50.456Z,87850.66
2023-02-03T10:29:42.976Z,87827.84
2023-02-03T10:32:14.003Z,87817.22
2023-02-03T10:34:47.392Z,87823.84
2023-02-03T10:37:31.181Z,87821.03
2023-02-03T10:40:01.813Z,87805.59
2023-02-03T10:42:32.730Z,87817.78
2023-02-03T10:45:01.077Z,87807.25
2023-02-03T10:47:42.822Z,87805.28
2023-02-03T10:50:30.873Z,87814.84
2023-02-03T10:53:34.478Z,87818.34
2023-02-03T10:56:11.777Z,87812.56
2023-02-03T10:58:48.144Z,87807.22
2023-02-03T11:01:20.009Z,87812.03
2023-02-03T11:04:07.821Z,87793.84
2023-02-03T11:06:35.299Z,87791.88
2023-02-03T11:09:21.722Z,87787.84
2023-02-03T11:12:02.339Z,87784.44
2023-02-03T11:14:39.442Z,87771.66
2023-02-03T11:17:15.075Z,87772.81
2023-02-03T11:19:47.256Z,87773.22
2023-02-03T11:22:34.147Z,87770.13
2023-02-03T11:25:15.221Z,87782.00
2023-02-03T11:27:43.380Z,87770.44
2023-02-03T11:30:20.740Z,87753.00
2023-02-03T11:32:49.943Z,87740.16
2023-02-03T11:35:30.938Z,87740.81
2023-02-03T11:38:01.289Z,87718.94
2023-02-03T11:40:33.171Z,87714.63
2023-02-03T11:43:17.689Z,87708.84
2023-02-03T11:45:50.354Z,87714.88
2023-02-03T11:48:25.231Z,87727.53
2023-02-03T11:51:33.913Z,87739.03
2023-02-03T11:54:31.354Z,87723.88
2023-02-03T11:57:47.617Z,87721.22
2023-02-03T12:00:35.064Z,87723.94
2023-02-03T12:03:29.883Z,87728.09
2023-02-03T12:06:45.444Z,87701.19
2023-02-03T12:09:33.101Z,87697.69
2023-02-03T12:12:30.528Z,87691.31
2023-02-03T12:15:03.766Z,87696.03
2023-02-03T12:18:06.201Z,87682.59
2023-02-03T12:20:45.633Z,87676.47
2023-02-03T12:23:13.049Z,87662.22
2023-02-03T12:25:46.150Z,87655.28
2023-02-03T12:28:34.025Z,87663.75
2023-02-03T12:31:38.265Z,87657.88
2023-02-03T12:35:07.762Z,87650.44
2023-02-03T12:37:56.848Z,87661.78
2023-02-03T12:40:50.167Z,87646.66
2023-02-03T12:43:25.963Z,87655.31
2023-02-03T12:46:15.738Z,87645.50
2023-02-03T12:49:02.438Z,87637.88
2023-02-03T12:51:33.798Z,87637.66
2023-02-03T12:54:37.762Z,87644.97
2023-02-03T12:57:35.282Z,87658.88
2023-02-03T13:00:46.366Z,87652.84
2023-02-03T13:04:03.463Z,87662.84
2023-02-03T13:07:00.666Z,87644.81
2023-02-03T13:09:59.476Z,87651.66
2023-02-03T13:12:46.651Z,87653.56
2023-02-03T13:15:37.670Z,87637.53
2023-02-03T13:18:30.635Z,87654.19
2023-02-03T13:20:58.322Z,87659.19
2023-02-03T13:23:26.658Z,87658.91
2023-02-03T13:26:18.605Z,87648.03
2023-02-03T13:29:19.928Z,87653.00
2023-02-03T13:32:32.134Z,87649.97
2023-02-03T13:35:36.467Z,87654.88
2023-02-03T13:38:31.582Z,87648.16
2023-02-03T13:41:30.178Z,87647.09
2023-02-03T13:43:59.125Z,87652.44
2023-02-03T13:46:32.582Z,87651.31
2023-02-03T13:49:04.605Z,87644.31
2023-02-03T13:51:37.626Z,87645.25
2023-02-03T13:54:14.565Z,87642.09
2023-02-03T13:56:42.404Z,87635.72
2023-02-03T13:59:15.120Z,87631.34
2023-02-03T14:01:43.877Z,87633.84
2023-02-03T14:04:31.435Z,87642.84
2023-02-03T14:07:04.588Z,87640.56
2023-02-03T14:09:31.764Z,87625.66
2023-02-03T14:12:31.207Z,87614.88
2023-02-03T14:15:21.883Z,87616.75
2023-02-03T14:17:51.716Z,87607.84
2023-02-03T14:20:27.901Z,87601.41
2023-02-03T14:23:07.393Z,87601.50
2023-02-03T14:26:06.011Z,87596.28
2023-02-03T14:28:43.852Z,87586.19
2023-02-03T14:31:18.928Z,87591.09
2023-02-03T14:33:49.171Z,87588.47
2023-02-03T14:36:28.570Z,87570.81
2023-02-03T14:39:00.035Z,87571.09
2023-02-03T14:41:56.465Z,87562.97
2023-02-03T14:44:32.290Z,87561.50
2023-02-03T14:47:36.201Z,87552.81
2023-02-03T14:50:37.625Z,87542.72
2023-02-03T14:53:07.852Z,87547.50
2023-02-03T14:55:56.368Z,87537.28
2023-02-03T14:58:41.440Z,87551.91
2023-02-03T15:01:25.088Z,87549.91
2023-02-03T15:04:27.953Z,87552.47
2023-02-03T15:06:55.346Z,87552.75
2023-02-03T15:09:48.611Z,87554.28
2023-02-03T15:12:24.850Z,87555.97
2023-02-03T15:14:53.756Z,87564.81
2023-02-03T15:17:28.598Z,87568.09
2023-02-03T15:19:55.888Z,87564.78
2023-02-03T15:22:30.531Z,87569.09
2023-02-03T15:25:04.044Z,87562.72
2023-02-03T15:27:33.524Z,87552.28
2023-02-03T15:30:18.846Z,87548.31
2023-02-03T15:33:06.510Z,87541.44
2023-02-03T15:35:37.514Z,87536.25
2023-02-03T15:38:20.685Z,87536.94
2023-02-03T15:40:55.687Z,87540.63
2023-02-03T15:43:29.899Z,87552.22
2023-02-03T15:46:04.422Z,87546.03
2023-02-03T15:48:40.752Z,87550.00
2023-02-03T15:51:24.186Z,87557.81
2023-02-03T15:54:22.286Z,87554.50
2023-02-03T15:57:04.516Z,87544.88
2023-02-03T15:59:42.489Z,87531.34
2023-02-03T16:02:28.494Z,87529.31
2023-02-03T16:05:14.898Z,87526.44
2023-02-03T16:07:42.859Z,87512.56
2023-02-03T16:10:34.229Z,87517.69
2023-02-03T16:13:27.761Z,87524.69
2023-02-03T16:16:16.090Z,87525.38
2023-02-03T16:18:59.928Z,87522.09
2023-02-03T16:21:53.118Z,87522.28
2023-02-03T16:24:44.461Z,87523.34
2023-02-03T16:27:26.948Z,87530.91
2023-02-03T16:30:22.954Z,87548.56
2023-02-03T16:33:34.648Z,87537.22
2023-02-03T16:39:27.146Z,87543.97
2023-02-03T16:42:29.392Z,87561.50
2023-02-03T16:45:27.181Z,87567.53
2023-02-03T16:48:00.201Z,87566.50
2023-02-03T16:50:37.735Z,87567.94
2023-02-03T16:53:28.314Z,87583.44
2023-02-03T16:56:00.107Z,87589.38
2023-02-03T16:58:28.350Z,87580.81
2023-02-03T17:00:58.515Z,87580.41
2023-02-03T17:03:28.549Z,87577.94
2023-02-03T17:05:57.171Z,87562.69
2023-02-03T17:08:26.354Z,87564.19
2023-02-03T17:10:54.409Z,87561.16
2023-02-03T17:13:23.293Z,87548.69
2023-02-03T17:15:52.466Z,87525.41
2023-02-03T17:18:20.788Z,87533.44
2023-02-03T17:20:48.386Z,87519.19
2023-02-03T17:23:16.803Z,87526.47
2023-02-03T17:25:47.700Z,87529.03
2023-02-03T17:28:15.314Z,87511.03
2023-02-03T17:30:42.811Z,87504.41
2023-02-03T17:33:11.058Z,87510.69
2023-02-03T17:35:47.271Z,87496.09
2023-02-03T17:38:14.830Z,87482.50
2023-02-03T17:54:33.650Z,87537.50
2023-02-03T17:57:01.080Z,87526.47
2023-02-03T17:59:28.436Z,87517.63
2023-02-03T18:01:55.663Z,87531.13
2023-02-03T18:04:22.884Z,87534.94
2023-02-03T18:06:50.126Z,87521.59
2023-02-03T18:09:17.502Z,87534.22
2023-02-03T18:11:45.298Z,87559.44
2023-02-03T18:14:16.146Z,87540.69
2023-02-03T18:16:44.584Z,87537.03
2023-02-03T18:19:15.904Z,87525.84
2023-02-03T18:21:44.301Z,87537.25
2023-02-03T18:24:14.015Z,87531.53
2023-02-03T18:26:52.196Z,87547.66
2023-02-03T18:29:19.885Z,87540.97
2023-02-03T18:31:50.324Z,87549.94
2023-02-03T18:34:17.636Z,87549.09
2023-02-03T18:36:45.900Z,87566.88
2023-02-03T18:39:14.452Z,87557.59
2023-02-03T18:41:42.094Z,87559.41
2023-02-03T18:44:09.821Z,87573.31
2023-02-03T18:46:38.153Z,87585.75
2023-02-03T18:49:08.049Z,87586.31
2023-02-03T18:51:35.274Z,87589.53
2023-02-03T18:54:02.916Z,87577.78
2023-02-03T18:56:31.209Z,87593.13
2023-02-03T18:58:58.336Z,87605.97
2023-02-03T19:01:31.308Z,87595.88
2023-02-03T19:04:02.240Z,87617.28
2023-02-03T19:06:32.380Z,87611.56
2023-02-03T19:09:00.414Z,87619.28
2023-02-03T19:11:27.846Z,87614.84
2023-02-03T19:13:55.119Z,87607.75
2023-02-03T19:16:22.613Z,87615.72
2023-02-03T19:18:49.867Z,87601.13
2023-02-03T19:21:17.172Z,87609.78
2023-02-03T19:23:44.689Z,87611.94
2023-02-03T19:26:12.174Z,87611.63
2023-02-03T19:28:40.943Z,87608.94
2023-02-03T19:31:13.344Z,87611.25
2023-02-03T19:33:41.180Z,87620.59
2023-02-03T19:36:10.450Z,87612.06
2023-02-03T19:38:37.892Z,87601.19
2023-02-03T19:41:05.351Z,87606.41
2023-02-03T19:43:32.900Z,87629.56
2023-02-03T19:46:00.512Z,87626.41
2023-02-03T19:48:28.112Z,87611.38
2023-02-03T19:50:55.344Z,87607.91
2023-02-03T19:53:22.691Z,87601.41
2023-02-03T19:55:50.133Z,87597.25
2023-02-03T19:58:17.483Z,87603.25
2023-02-03T20:00:44.818Z,87601.84
2023-02-03T20:03:12.112Z,87620.63
2023-02-03T20:05:39.339Z,87632.25
2023-02-03T20:08:07.471Z,87627.59
2023-02-03T20:10:34.661Z,87631.44
2023-02-03T20:13:01.910Z,87621.97
2023-02-03T20:15:29.174Z,87626.25
2023-02-03T20:17:56.569Z,87628.31
2023-02-03T20:20:23.769Z,87630.16
2023-02-03T20:22:51.084Z,87642.34
2023-02-03T20:25:18.364Z,87635.72
2023-02-03T20:27:45.719Z,87624.16
2023-02-03T20:30:13.971Z,87647.56
2023-02-03T20:32:41.366Z,87637.00
2023-02-03T20:35:09.476Z,87632.47
2023-02-03T20:37:36.789Z,87630.16
2023-02-03T20:40:24.598Z,87626.38
2023-02-03T20:42:51.803Z,87612.56
2023-02-03T20:45:22.782Z,87610.47
2023-02-03T20:47:51.057Z,87597.97
2023-02-03T20:50:28.918Z,87588.97
2023-02-03T20:52:59.290Z,87592.34
2023-02-03T20:55:26.492Z,87604.81
2023-02-03T20:57:53.706Z,87604.41
2023-02-03T21:00:26.767Z,87604.94
2023-02-03T21:02:54.321Z,87607.22
2023-02-03T21:05:29.277Z,87593.16
2023-02-03T21:07:56.516Z,87605.16
2023-02-03T21:10:25.992Z,87605.94
2023-02-03T21:12:53.310Z,87608.09
2023-02-03T21:15:32.020Z,87596.22
2023-02-03T21:17:59.272Z,87584.28
2023-02-03T21:20:30.874Z,87580.13
2023-02-03T21:22:58.982Z,87588.09
2023-02-03T21:25:33.900Z,87594.38
2023-02-03T21:28:01.699Z,87588.94
2023-02-03T21:30:33.300Z,87589.50
2023-02-03T21:33:37.464Z,87577.44
2023-02-03T21:36:05.082Z,87559.19
2023-02-03T21:38:33.294Z,87579.31
2023-02-03T21:41:01.164Z,87586.38
2023-02-03T21:43:29.423Z,87583.22
2023-02-03T21:45:56.688Z,87580.97
2023-02-03T21:48:37.221Z,87579.34
2023-02-03T21:51:16.862Z,87575.75
2023-02-03T21:54:29.132Z,87597.16
2023-02-03T21:56:58.669Z,87571.94
2023-02-03T21:59:28.842Z,87578.69
2023-02-03T22:01:57.221Z,87573.38
2023-02-03T22:04:29.259Z,87560.78
2023-02-03T22:06:56.970Z,87566.22
2023-02-03T22:09:27.042Z,87547.94
2023-02-03T22:11:54.520Z,87554.69
2023-02-03T22:14:21.965Z,87546.84
2023-02-03T22:16:49.608Z,87550.34
2023-02-03T22:19:16.857Z,87555.34
2023-02-03T22:21:44.332Z,87547.63
2023-02-03T22:24:12.238Z,87549.59
2023-02-03T22:26:39.451Z,87553.25
2023-02-03T22:29:06.698Z,87541.75
2023-02-03T22:31:33.974Z,87531.97
2023-02-03T22:34:01.327Z,87541.41
2023-02-03T22:36:28.591Z,87536.41
2023-02-03T22:38:56.019Z,87533.16
2023-02-03T22:41:23.276Z,87548.25
2023-02-03T22:43:50.547Z,87538.25
2023-02-03T22:46:17.964Z,87536.97
2023-02-03T22:48:45.283Z,87535.41
2023-02-03T22:51:12.539Z,87550.41
2023-02-03T22:53:39.731Z,87537.03
2023-02-03T22:56:07.374Z,87545.50
2023-02-03T22:58:34.552Z,87539.44
2023-02-03T23:01:01.809Z,87550.72
2023-02-03T23:03:29.159Z,87559.53
2023-02-03T23:05:56.553Z,87545.44
2023-02-03T23:08:23.772Z,87554.75
2023-02-03T23:10:51.246Z,87557.63
2023-02-03T23:13:18.503Z,87548.03
2023-02-03T23:15:45.781Z,87555.44
2023-02-03T23:18:13.113Z,87550.72
2023-02-03T23:20:40.360Z,87551.72
2023-02-03T23:23:07.498Z,87555.38
2023-02-03T23:25:34.860Z,87543.03
2023-02-03T23:28:02.118Z,87541.75
2023-02-03T23:30:29.670Z,87541.63
2023-02-03T23:32:57.097Z,87541.97
2023-02-03T23:35:24.242Z,87540.22
2023-02-03T23:37:51.463Z,87554.09
2023-02-03T23:40:18.932Z,87554.97
2023-02-03T23:42:46.055Z,87536.19
2023-02-03T23:45:13.359Z,87556.16
2023-02-03T23:47:43.492Z,87551.63
2023-02-03T23:50:14.747Z,87533.38
2023-02-03T23:52:42.146Z,87528.34
2023-02-03T23:55:20.825Z,87523.56
2023-02-03T23:57:48.162Z,87518.00
